createdAt,value
2022-09-20T00:02:33.537Z,2.70
2022-09-20T00:05:41.771Z,2.80
2022-09-20T00:08:48.803Z,1.50
2022-09-20T00:11:55.158Z,2.07
2022-09-20T00:15:01.378Z,1.60
2022-09-20T00:18:09.559Z,2.00
2022-09-20T00:21:18.214Z,2.00
2022-09-20T00:24:24.497Z,1.80
2022-09-20T00:27:31.469Z,1.70
2022-09-20T00:30:37.891Z,2.00
2022-09-20T00:34:14.762Z,1.93
2022-09-20T00:37:20.995Z,2.10
2022-09-20T00:40:28.183Z,1.97
2022-09-20T00:43:39.761Z,6.87
2022-09-20T00:46:46.925Z,1.90
2022-09-20T00:49:59.949Z,2.13
2022-09-20T00:53:10.922Z,2.37
2022-09-20T00:56:21.605Z,2.10
2022-09-20T00:59:31.966Z,2.57
2022-09-20T01:02:42.337Z,2.00
2022-09-20T01:05:51.907Z,2.00
2022-09-20T01:09:02.694Z,2.33
2022-09-20T01:12:15.124Z,2.17
2022-09-20T01:15:23.531Z,1.67
2022-09-20T01:18:33.050Z,2.00
2022-09-20T01:21:40.837Z,2.30
2022-09-20T01:24:57.888Z,6.10
2022-09-20T01:28:05.621Z,2.17
2022-09-20T01:31:17.014Z,2.80
2022-09-20T01:34:29.786Z,2.23
2022-09-20T01:37:50.639Z,2.03
2022-09-20T01:41:06.260Z,2.47
2022-09-20T01:44:24.034Z,2.13
2022-09-20T01:47:35.278Z,2.47
2022-09-20T01:50:57.071Z,2.60
2022-09-20T01:54:52.996Z,2.30
2022-09-20T01:58:34.046Z,2.00
2022-09-20T02:02:15.837Z,4.23
2022-09-20T02:05:54.598Z,1.50
2022-09-20T02:09:25.274Z,2.60
2022-09-20T02:12:45.362Z,2.23
2022-09-20T02:16:12.526Z,1.90
2022-09-20T02:19:42.755Z,2.37
2022-09-20T02:23:13.073Z,2.30
2022-09-20T02:26:38.131Z,2.00
2022-09-20T02:29:52.787Z,2.20
2022-09-20T02:33:24.599Z,2.40
2022-09-20T02:36:42.342Z,2.03
2022-09-20T02:40:03.516Z,2.07
2022-09-20T02:43:22.818Z,2.43
2022-09-20T02:46:34.849Z,2.33
2022-09-20T02:49:53.531Z,3.73
2022-09-20T02:53:09.853Z,8.37
2022-09-20T02:56:22.244Z,3.47
2022-09-20T02:59:38.956Z,2.37
2022-09-20T03:03:01.633Z,2.70
2022-09-20T03:06:15.986Z,1.90
2022-09-20T03:09:32.379Z,1.97
2022-09-20T03:12:51.351Z,1.60
2022-09-20T03:16:10.579Z,1.53
2022-09-20T03:19:25.795Z,6.17
2022-09-20T03:22:41.804Z,2.43
2022-09-20T03:26:04.071Z,2.77
2022-09-20T03:29:24.258Z,2.27
2022-09-20T03:32:46.713Z,2.30
2022-09-20T03:36:06.186Z,11.97
2022-09-20T03:39:46.180Z,1.97
2022-09-20T03:42:54.108Z,20.23
2022-09-20T03:46:10.534Z,8.33
2022-09-20T03:49:53.381Z,4.40
2022-09-20T03:53:20.423Z,2.77
2022-09-20T03:57:10.367Z,2.30
2022-09-20T04:00:24.105Z,2.77
2022-09-20T04:03:38.533Z,3.17
2022-09-20T04:07:17.034Z,2.70
2022-09-20T04:10:42.795Z,1.83
2022-09-20T04:13:55.983Z,1.60
2022-09-20T04:17:07.971Z,1.60
2022-09-20T04:20:21.361Z,2.03
2022-09-20T04:23:38.307Z,4.43
2022-09-20T04:26:49.793Z,2.20
2022-09-20T04:30:02.273Z,1.63
2022-09-20T04:33:18.805Z,2.00
2022-09-20T04:36:39.698Z,1.40
2022-09-20T04:39:54.422Z,1.40
2022-09-20T04:43:43.327Z,1.30
2022-09-20T04:47:18.643Z,1.40
2022-09-20T04:50:44.269Z,1.40
2022-09-20T04:54:20.383Z,1.40
2022-09-20T04:57:55.094Z,1.50
2022-09-20T05:01:35.869Z,1.50
2022-09-20T05:05:28.448Z,3.33
2022-09-20T05:09:09.135Z,1.50
2022-09-20T05:12:56.543Z,1.20
2022-09-20T05:16:08.813Z,1.30
2022-09-20T05:19:27.742Z,1.50
2022-09-20T05:23:02.859Z,1.70
2022-09-20T05:26:13.806Z,1.50
2022-09-20T05:29:26.572Z,1.57
2022-09-20T05:32:45.439Z,1.40
2022-09-20T05:36:05.447Z,1.33
2022-09-20T05:39:27.982Z,1.33
2022-09-20T05:42:44.335Z,1.83
2022-09-20T05:46:05.123Z,1.47
2022-09-20T05:49:26.167Z,1.30
2022-09-20T05:52:45.834Z,2.33
2022-09-20T05:56:01.111Z,4.57
2022-09-20T05:59:26.723Z,1.73
2022-09-20T06:02:41.580Z,1.60
2022-09-20T06:05:57.933Z,1.70
2022-09-20T06:09:31.378Z,2.33
2022-09-20T06:12:52.966Z,1.63
2022-09-20T06:16:01.837Z,1.40
2022-09-20T06:19:17.658Z,1.70
2022-09-20T06:22:28.982Z,1.40
2022-09-20T06:25:42.961Z,2.10
2022-09-20T06:28:56.425Z,1.53
2022-09-20T06:32:04.295Z,1.40
2022-09-20T06:35:11.323Z,1.50
2022-09-20T06:38:55.279Z,1.80
2022-09-20T06:42:01.985Z,1.63
2022-09-20T06:45:08.495Z,2.10
2022-09-20T06:48:15.690Z,1.50
2022-09-20T06:51:22.215Z,1.60
2022-09-20T06:54:30.503Z,1.93
2022-09-20T06:57:39.047Z,2.70
2022-09-20T07:00:45.467Z,2.37
2022-09-20T07:03:51.562Z,3.90
2022-09-20T07:07:03.307Z,4.53
2022-09-20T07:10:14.911Z,2.60
2022-09-20T07:13:21.566Z,2.53
2022-09-20T07:16:28.116Z,1.80
2022-09-20T07:19:35.290Z,1.57
2022-09-20T07:22:41.856Z,2.20
2022-09-20T07:25:49.490Z,2.00
2022-09-20T07:28:56.675Z,2.33
2022-09-20T07:32:03.177Z,1.60
2022-09-20T07:35:10.190Z,2.00
2022-09-20T07:38:17.186Z,2.00
2022-09-20T07:41:24.575Z,2.00
2022-09-20T07:44:30.767Z,1.83
2022-09-20T07:47:41.245Z,2.10
2022-09-20T07:50:52.482Z,2.90
2022-09-20T07:53:58.803Z,1.90
2022-09-20T07:57:06.935Z,1.53
2022-09-20T08:00:14.408Z,1.70
2022-09-20T08:03:20.718Z,2.73
2022-09-20T08:06:26.985Z,1.67
2022-09-20T08:09:33.410Z,1.63
2022-09-20T08:16:10.523Z,3.27
2022-09-20T08:19:18.958Z,3.47
2022-09-20T08:22:25.510Z,2.97
2022-09-20T08:25:32.008Z,2.10
2022-09-20T08:28:40.988Z,1.90
2022-09-20T08:31:47.334Z,2.10
2022-09-20T08:34:53.734Z,1.67
2022-09-20T08:39:57.183Z,1.90
2022-09-20T08:41:31.067Z,1.90
2022-09-20T08:44:47.887Z,1.90
2022-09-20T08:47:59.470Z,1.50
2022-09-20T08:51:06.947Z,2.03
2022-09-20T08:54:16.374Z,1.80
2022-09-20T08:57:22.274Z,1.80
2022-09-20T09:00:32.407Z,1.83
2022-09-20T09:03:38.422Z,1.60
2022-09-20T09:06:45.618Z,3.53
2022-09-20T09:09:54.150Z,1.70
2022-09-20T09:13:00.910Z,2.03
2022-09-20T09:16:14.950Z,5.03
2022-09-20T09:19:36.306Z,3.30
2022-09-20T09:22:45.247Z,2.13
2022-09-20T09:25:52.455Z,2.03
2022-09-20T09:29:17.618Z,1.90
2022-09-20T09:32:29.382Z,2.00
2022-09-20T09:35:37.578Z,1.70
2022-09-20T09:38:46.314Z,1.80
2022-09-20T09:41:52.591Z,1.77
2022-09-20T09:45:12.396Z,1.80
2022-09-20T09:48:23.802Z,1.77
2022-09-20T09:51:29.943Z,3.53
2022-09-20T09:54:39.590Z,2.13
2022-09-20T09:57:57.912Z,1.57
2022-09-20T10:01:08.198Z,1.70
2022-09-20T10:04:22.671Z,1.70
2022-09-20T10:07:38.654Z,3.43
2022-09-20T10:11:01.753Z,2.73
2022-09-20T10:14:22.087Z,1.83
2022-09-20T10:17:42.575Z,1.70
2022-09-20T10:21:07.886Z,2.07
2022-09-20T10:24:30.719Z,4.03
2022-09-20T10:27:50.808Z,2.83
2022-09-20T10:31:07.636Z,1.97
2022-09-20T10:34:31.710Z,2.00
2022-09-20T10:37:52.009Z,1.60
2022-09-20T10:41:35.748Z,1.97
2022-09-20T10:44:59.071Z,1.90
2022-09-20T10:48:08.414Z,1.60
2022-09-20T10:51:24.381Z,1.60
2022-09-20T10:54:43.092Z,2.00
2022-09-20T10:58:17.853Z,6.17
2022-09-20T11:01:32.527Z,1.90
2022-09-20T11:05:16.795Z,1.63
2022-09-20T11:08:27.950Z,1.60
2022-09-20T11:11:41.253Z,7.07
2022-09-20T11:14:51.231Z,1.77
2022-09-20T11:18:06.192Z,1.73
2022-09-20T11:21:21.001Z,1.80
2022-09-20T11:24:33.638Z,2.00
2022-09-20T11:27:45.906Z,1.57
2022-09-20T11:30:58.201Z,1.40
2022-09-20T11:34:12.170Z,1.70
2022-09-20T11:37:20.065Z,2.33
2022-09-20T11:40:31.169Z,1.30
2022-09-20T11:43:43.285Z,7.57
2022-09-20T11:46:56.652Z,1.87
2022-09-20T11:50:33.142Z,2.10
2022-09-20T11:53:57.342Z,2.57
2022-09-20T11:57:06.084Z,2.10
2022-09-20T12:00:14.456Z,2.00
2022-09-20T12:03:32.261Z,1.80
2022-09-20T12:06:42.657Z,4.77
2022-09-20T12:09:57.381Z,2.00
2022-09-20T12:13:07.211Z,1.90
2022-09-20T12:16:18.376Z,1.60
2022-09-20T12:19:38.961Z,1.20
2022-09-20T12:22:45.154Z,1.40
2022-09-20T12:26:02.072Z,1.80
2022-09-20T12:29:55.434Z,1.30
2022-09-20T12:33:05.119Z,1.07
2022-09-20T12:36:18.956Z,1.00
2022-09-20T12:39:29.904Z,4.77
2022-09-20T12:42:37.767Z,1.03
2022-09-20T12:45:54.370Z,3.47
2022-09-20T12:50:06.867Z,5.03
2022-09-20T12:53:16.868Z,1.20
2022-09-20T12:56:28.133Z,1.40
2022-09-20T12:59:34.830Z,1.10
2022-09-20T13:02:58.403Z,2.20
2022-09-20T13:06:27.758Z,4.97
2022-09-20T13:09:33.920Z,1.20
2022-09-20T13:12:42.457Z,1.60
2022-09-20T13:15:53.503Z,1.40
2022-09-20T13:19:05.833Z,1.37
2022-09-20T13:22:21.062Z,1.83
2022-09-20T13:25:28.584Z,1.27
2022-09-20T13:28:41.628Z,1.20
2022-09-20T13:31:48.560Z,1.63
2022-09-20T13:35:07.793Z,1.77
2022-09-20T13:38:20.476Z,4.30
2022-09-20T13:41:32.652Z,1.90
2022-09-20T13:44:40.127Z,1.20
2022-09-20T13:47:50.677Z,1.63
2022-09-20T13:50:57.716Z,1.30
2022-09-20T13:57:03.360Z,1.30
2022-09-20T14:00:15.615Z,1.60
2022-09-20T14:03:23.222Z,1.93
2022-09-20T14:06:29.896Z,1.37
2022-09-20T14:09:40.147Z,3.07
2022-09-20T14:12:50.333Z,3.73
2022-09-20T14:15:56.090Z,6.40
2022-09-20T14:19:04.073Z,2.57
2022-09-20T14:22:19.209Z,1.87
2022-09-20T14:25:27.725Z,1.33
2022-09-20T14:28:35.318Z,4.80
2022-09-20T14:31:47.729Z,2.30
2022-09-20T14:35:01.707Z,3.83
2022-09-20T14:38:10.436Z,2.10
2022-09-20T14:41:28.909Z,1.20
2022-09-20T14:44:37.617Z,1.90
2022-09-20T14:47:56.879Z,2.53
2022-09-20T14:51:25.504Z,2.40
2022-09-20T14:54:33.776Z,3.57
2022-09-20T14:57:39.937Z,2.90
2022-09-20T15:00:54.156Z,7.23
2022-09-20T15:04:00.935Z,1.90
2022-09-20T15:07:10.590Z,1.77
2022-09-20T15:10:17.136Z,1.70
2022-09-20T15:13:23.378Z,1.97
2022-09-20T15:16:31.200Z,1.87
2022-09-20T15:19:37.290Z,1.90
2022-09-20T15:22:43.779Z,7.17
2022-09-20T15:25:52.148Z,2.23
2022-09-20T15:28:58.252Z,6.97
2022-09-20T15:32:06.440Z,2.50
2022-09-20T15:35:14.142Z,6.27
2022-09-20T15:38:20.573Z,1.90
2022-09-20T15:41:31.316Z,2.00
2022-09-20T15:44:38.170Z,1.50
2022-09-20T15:47:46.838Z,2.40
2022-09-20T15:51:03.820Z,3.73
2022-09-20T15:54:15.282Z,2.47
2022-09-20T15:57:21.435Z,2.77
2022-09-20T16:00:27.880Z,2.60
2022-09-20T16:03:36.624Z,1.90
2022-09-20T16:06:44.575Z,2.07
2022-09-20T16:09:50.873Z,1.77
2022-09-20T16:12:57.177Z,3.37
2022-09-20T16:16:04.122Z,3.60
2022-09-20T16:19:21.671Z,3.13
2022-09-20T16:22:28.089Z,2.50
2022-09-20T16:25:34.359Z,1.93
2022-09-20T16:28:45.208Z,1.83
2022-09-20T16:31:55.371Z,2.47
2022-09-20T16:35:07.203Z,2.23
2022-09-20T16:38:14.204Z,2.53
2022-09-20T16:41:20.191Z,5.60
2022-09-20T16:44:26.507Z,4.20
2022-09-20T16:47:32.786Z,3.63
2022-09-20T16:50:40.251Z,8.07
2022-09-20T16:53:46.256Z,8.87
2022-09-20T16:56:52.785Z,3.83
2022-09-20T16:59:59.029Z,4.33
2022-09-20T17:03:05.151Z,3.40
2022-09-20T17:06:13.647Z,4.67
2022-09-20T17:09:20.305Z,3.47
2022-09-20T17:12:29.094Z,7.23
2022-09-20T17:15:37.802Z,4.00
2022-09-20T17:18:44.896Z,5.67
2022-09-20T17:21:52.946Z,2.63
2022-09-20T17:24:59.188Z,2.60
2022-09-20T17:28:05.238Z,2.20
2022-09-20T17:31:13.658Z,2.10
2022-09-20T17:34:21.770Z,2.50
2022-09-20T17:37:29.732Z,5.73
2022-09-20T17:40:35.689Z,10.17
2022-09-20T17:43:42.694Z,6.97
2022-09-20T17:46:50.751Z,6.67
2022-09-20T17:49:57.226Z,6.33
2022-09-20T17:53:06.254Z,3.50
2022-09-20T17:56:13.351Z,2.70
2022-09-20T17:59:20.480Z,8.97
2022-09-20T18:02:26.403Z,3.20
2022-09-20T18:05:32.590Z,5.20
2022-09-20T18:08:40.834Z,6.60
2022-09-20T18:11:49.776Z,3.07
2022-09-20T18:14:57.025Z,3.50
2022-09-20T18:18:03.412Z,3.17
2022-09-20T18:21:17.554Z,2.60
2022-09-20T18:24:25.877Z,1.93
2022-09-20T18:27:34.122Z,1.90
2022-09-20T18:30:40.708Z,1.90
2022-09-20T18:33:46.799Z,2.30
2022-09-20T18:36:54.566Z,2.20
2022-09-20T18:40:02.563Z,5.70
2022-09-20T18:43:09.486Z,7.00
2022-09-20T18:46:15.535Z,4.87
2022-09-20T18:49:21.815Z,5.57
2022-09-20T18:52:29.734Z,3.37
2022-09-20T18:55:37.773Z,3.97
2022-09-20T18:58:45.077Z,3.90
2022-09-20T19:02:09.027Z,3.10
2022-09-20T19:05:24.343Z,6.53
2022-09-20T19:08:37.202Z,7.87
2022-09-20T19:11:55.395Z,4.67
2022-09-20T19:15:22.741Z,3.93
2022-09-20T19:18:47.763Z,3.73
2022-09-20T19:22:00.514Z,11.17
2022-09-20T19:25:21.803Z,10.30
2022-09-20T19:28:29.894Z,10.13
2022-09-20T19:31:36.370Z,8.93
2022-09-20T19:34:46.852Z,10.40
2022-09-20T19:38:03.446Z,7.63
2022-09-20T19:41:27.565Z,7.13
2022-09-20T19:44:44.692Z,13.17
2022-09-20T19:47:58.400Z,19.27
2022-09-20T19:51:08.214Z,8.77
2022-09-20T19:54:16.138Z,9.27
2022-09-20T19:57:24.342Z,9.93
2022-09-20T20:00:32.609Z,11.40
2022-09-20T20:03:39.296Z,6.80
2022-09-20T20:06:56.178Z,8.73
2022-09-20T20:10:16.618Z,7.50
2022-09-20T20:13:51.347Z,5.83
2022-09-20T20:17:06.796Z,9.03
2022-09-20T20:20:24.217Z,4.73
2022-09-20T20:23:50.053Z,4.03
2022-09-20T20:26:56.222Z,4.30
2022-09-20T20:30:02.658Z,5.47
2022-09-20T20:33:15.409Z,3.53
2022-09-20T20:36:21.768Z,4.37
2022-09-20T20:39:28.872Z,7.10
2022-09-20T20:42:36.806Z,5.40
2022-09-20T20:45:51.092Z,8.13
2022-09-20T20:48:58.676Z,9.00
2022-09-20T20:52:05.902Z,8.57
2022-09-20T20:55:11.908Z,10.27
2022-09-20T20:58:18.228Z,11.03
2022-09-20T21:01:27.272Z,15.03
2022-09-20T21:04:35.395Z,8.27
2022-09-20T21:07:41.544Z,8.13
2022-09-20T21:10:47.842Z,3.90
2022-09-20T21:13:55.273Z,4.67
2022-09-20T21:17:01.538Z,5.37
2022-09-20T21:20:11.099Z,3.43
2022-09-20T21:23:17.456Z,5.77
2022-09-20T21:26:25.333Z,7.53
2022-09-20T21:29:31.844Z,7.07
2022-09-20T21:32:37.935Z,6.10
2022-09-20T21:35:45.717Z,4.37
2022-09-20T21:38:51.971Z,6.43
2022-09-20T21:41:58.354Z,3.93
2022-09-20T21:45:08.598Z,3.20
2022-09-20T21:48:14.646Z,3.33
2022-09-20T21:51:23.079Z,4.50
2022-09-20T21:54:29.481Z,4.57
2022-09-20T21:57:35.817Z,7.17
2022-09-20T22:00:42.100Z,3.20
2022-09-20T22:03:50.542Z,4.20
2022-09-20T22:06:58.518Z,8.33
2022-09-20T22:10:04.813Z,6.83
2022-09-20T22:13:10.769Z,9.30
2022-09-20T22:16:20.082Z,6.13
2022-09-20T22:19:26.514Z,9.73
2022-09-20T22:22:33.821Z,6.43
2022-09-20T22:25:39.803Z,6.70
2022-09-20T22:28:49.903Z,5.60
2022-09-20T22:31:56.038Z,2.93
2022-09-20T22:35:02.031Z,2.97
2022-09-20T22:38:09.636Z,3.27
2022-09-20T22:41:17.661Z,2.63
2022-09-20T22:44:24.025Z,2.57
2022-09-20T22:47:30.457Z,2.47
2022-09-20T22:50:36.754Z,2.50
2022-09-20T22:53:44.901Z,2.47
2022-09-20T22:56:51.285Z,2.60
2022-09-20T22:59:57.678Z,3.37
2022-09-20T23:03:04.041Z,3.43
2022-09-20T23:06:14.689Z,2.93
2022-09-20T23:09:23.595Z,3.23
2022-09-20T23:12:29.938Z,3.53
2022-09-20T23:15:36.366Z,8.67
2022-09-20T23:18:43.229Z,4.80
2022-09-20T23:21:49.393Z,3.43
2022-09-20T23:24:57.111Z,7.33
2022-09-20T23:28:03.490Z,2.70
2022-09-20T23:31:11.588Z,3.00
2022-09-20T23:34:18.584Z,2.97
2022-09-20T23:37:24.921Z,3.00
2022-09-20T23:40:32.580Z,2.83
2022-09-20T23:43:39.726Z,3.20
2022-09-20T23:46:45.573Z,3.20
2022-09-20T23:49:51.723Z,2.97
2022-09-20T23:52:57.980Z,2.77
2022-09-20T23:56:06.686Z,3.63
2022-09-20T23:59:12.568Z,2.67
